createdAt,value
2022-11-17T08:52:10.431Z,81.91
2022-11-17T08:53:16.924Z,81.66
2022-11-17T08:54:18.464Z,81.63
2022-11-17T08:55:19.966Z,81.54
2022-11-17T08:56:21.734Z,81.22
2022-11-17T08:57:26.419Z,80.00
2022-11-17T08:58:28.002Z,78.48
2022-11-17T08:59:29.422Z,77.37
2022-11-17T09:00:30.834Z,78.46
2022-11-17T09:01:32.426Z,78.22
2022-11-17T09:02:37.301Z,79.08
2022-11-17T09:03:38.735Z,78.94
2022-11-17T09:04:40.425Z,79.27
2022-11-17T09:05:45.069Z,78.99
2022-11-17T09:06:46.488Z,78.55
2022-11-17T09:07:50.953Z,78.57
2022-11-17T09:08:55.631Z,79.58
2022-11-17T09:09:57.092Z,79.83
2022-11-17T09:10:58.753Z,80.68
2022-11-17T09:12:00.277Z,81.19
2022-11-17T09:13:01.773Z,80.38
2022-11-17T09:14:03.725Z,81.44
2022-11-17T09:15:06.200Z,80.49
2022-11-17T09:16:10.901Z,80.21
2022-11-17T09:17:12.357Z,79.79
2022-11-17T09:18:13.767Z,79.67
2022-11-17T09:19:16.024Z,79.94
2022-11-17T09:20:19.121Z,80.87
2022-11-17T09:21:20.565Z,80.69
2022-11-17T09:22:22.111Z,81.29
2022-11-17T09:23:27.122Z,81.08
2022-11-17T09:24:28.537Z,80.95
2022-11-17T09:25:30.494Z,80.61
2022-11-17T09:26:32.336Z,81.15
2022-11-17T09:27:33.897Z,80.57
2022-11-17T09:56:36.837Z,77.63
2022-11-17T09:57:45.429Z,77.05
2022-11-17T09:58:53.747Z,77.37
2022-11-17T10:00:24.550Z,77.23
2022-11-17T10:01:28.848Z,78.50
2022-11-17T10:02:30.432Z,78.23
2022-11-17T10:03:38.774Z,77.88
2022-11-17T10:04:48.749Z,78.42
2022-11-17T10:05:52.116Z,78.08
2022-11-17T10:06:53.671Z,77.87
2022-11-17T10:08:00.283Z,77.51
2022-11-17T10:09:13.417Z,76.87
2022-11-17T10:10:21.290Z,76.22
2022-11-17T10:11:31.769Z,76.81
2022-11-17T10:12:42.189Z,76.98
2022-11-17T10:13:43.639Z,77.08
2022-11-17T10:14:48.247Z,76.53
2022-11-17T10:15:57.520Z,75.61
2022-11-17T10:16:59.173Z,75.78
2022-11-17T10:18:00.545Z,75.78
2022-11-17T10:19:23.280Z,76.08
2022-11-17T10:20:24.795Z,76.27
2022-11-17T10:21:30.708Z,77.12
2022-11-17T10:22:36.992Z,77.18
2022-11-17T10:23:46.961Z,77.62
2022-11-17T10:24:52.098Z,77.20
2022-11-17T10:25:58.604Z,74.39
2022-11-17T10:27:05.491Z,74.92
2022-11-17T10:28:09.018Z,75.17
2022-11-17T10:29:14.010Z,74.90
2022-11-17T10:30:23.949Z,71.85
2022-11-17T10:31:25.366Z,70.66
2022-11-17T10:32:36.543Z,68.83
2022-11-17T10:33:41.171Z,67.66
2022-11-17T10:34:42.658Z,67.65
2022-11-17T10:35:56.436Z,70.70
2022-11-17T10:37:04.177Z,72.02
2022-11-17T10:38:08.548Z,69.69
2022-11-17T10:39:34.286Z,72.60
2022-11-17T10:40:38.893Z,73.79
2022-11-17T10:41:45.128Z,73.75
2022-11-17T10:42:59.820Z,73.72
2022-11-17T10:44:05.581Z,73.86
2022-11-17T10:45:17.276Z,73.85
2022-11-17T10:46:18.720Z,68.98
2022-11-17T10:47:31.530Z,66.78
2022-11-17T10:48:38.103Z,63.37
2022-11-17T10:49:39.764Z,62.26
2022-11-17T10:50:55.179Z,61.15
2022-11-17T10:52:05.773Z,62.21
2022-11-17T10:53:46.045Z,62.08
2022-11-17T10:54:49.725Z,61.39
2022-11-17T10:55:57.999Z,64.34
2022-11-17T10:57:00.849Z,63.64
2022-11-17T10:58:26.840Z,62.34
2022-11-17T10:59:35.881Z,60.68
2022-11-17T11:00:37.826Z,59.80
2022-11-17T11:01:49.602Z,60.45
2022-11-17T11:03:05.038Z,60.63
2022-11-17T11:04:25.885Z,59.50
2022-11-17T11:05:27.384Z,58.69
2022-11-17T11:06:31.780Z,58.93
2022-11-17T11:07:33.301Z,59.23
2022-11-17T11:08:56.074Z,57.64
2022-11-17T11:10:06.385Z,57.25
2022-11-17T11:11:18.953Z,58.28
2022-11-17T11:12:41.352Z,61.26
2022-11-17T11:13:56.622Z,63.39
2022-11-17T11:15:00.017Z,62.48
2022-11-17T11:16:01.538Z,61.74
2022-11-17T11:17:16.350Z,59.57
2022-11-17T11:18:19.737Z,61.44
2022-11-17T11:19:21.495Z,61.11
2022-11-17T11:20:42.437Z,60.75
2022-11-17T11:21:53.030Z,60.11
2022-11-17T11:23:16.410Z,59.72
2022-11-17T11:24:35.139Z,60.63
2022-11-17T11:25:51.753Z,61.44
2022-11-17T11:27:28.102Z,60.95
2022-11-17T11:28:51.390Z,61.25
2022-11-17T11:30:04.170Z,61.57
2022-11-17T11:31:20.351Z,61.98
2022-11-17T11:32:36.890Z,61.80
2022-11-17T11:33:52.403Z,62.70
2022-11-17T11:35:20.238Z,62.64
2022-11-17T11:36:50.919Z,62.37
2022-11-17T11:38:09.479Z,62.25
2022-11-17T11:39:35.922Z,61.29
2022-11-17T11:40:44.669Z,63.56
2022-11-17T11:42:06.399Z,63.12
2022-11-17T11:43:54.406Z,61.95
2022-11-17T11:45:21.119Z,61.07
2022-11-17T11:46:43.949Z,59.59
2022-11-17T11:48:10.888Z,60.81
2022-11-17T11:49:43.195Z,61.13
2022-11-17T11:51:03.593Z,61.11
2022-11-17T11:52:14.483Z,61.61
2022-11-17T11:53:24.480Z,61.36
2022-11-17T11:54:50.447Z,60.44
2022-11-17T11:56:06.567Z,60.20
2022-11-17T11:57:14.537Z,61.32
2022-11-17T11:58:22.764Z,62.03
2022-11-17T11:59:43.150Z,62.32
2022-11-17T12:00:45.861Z,62.04
2022-11-17T12:02:02.052Z,62.33
2022-11-17T12:03:12.499Z,61.85
2022-11-17T12:04:38.406Z,62.96
2022-11-17T12:06:25.013Z,62.90
2022-11-17T12:07:44.393Z,61.93
2022-11-17T12:09:11.079Z,62.49
2022-11-17T12:10:30.710Z,61.94
2022-11-17T12:11:52.344Z,61.43
2022-11-17T12:12:54.079Z,60.50
2022-11-17T12:13:57.193Z,61.67
2022-11-17T12:15:19.293Z,61.19
2022-11-17T12:16:29.222Z,61.56
2022-11-17T12:17:30.771Z,61.40
2022-11-17T12:18:33.366Z,59.73
2022-11-17T12:19:48.586Z,60.58
2022-11-17T12:20:55.908Z,60.49
2022-11-17T12:21:57.769Z,59.95
2022-11-17T12:23:31.041Z,60.16
2022-11-17T12:24:41.005Z,59.94
2022-11-17T12:25:54.560Z,60.46
2022-11-17T12:27:34.088Z,59.40
2022-11-17T12:28:40.595Z,60.00
2022-11-17T12:29:46.820Z,59.61
2022-11-17T12:30:51.762Z,58.58
2022-11-17T12:31:55.679Z,60.05
2022-11-17T12:32:58.695Z,61.62
2022-11-17T12:34:00.118Z,61.59
2022-11-17T12:35:33.707Z,61.01
2022-11-17T12:36:35.937Z,60.76
2022-11-17T12:37:37.374Z,59.85
2022-11-17T12:38:39.637Z,60.09
2022-11-17T12:39:56.241Z,59.87
2022-11-17T12:40:57.736Z,60.16
2022-11-17T12:42:06.731Z,60.34
2022-11-17T12:43:23.453Z,59.51
2022-11-17T12:44:33.874Z,59.61
2022-11-17T12:46:04.039Z,59.90
2022-11-17T12:47:21.335Z,58.60
2022-11-17T12:48:34.029Z,58.41
2022-11-17T12:50:02.222Z,58.76
2022-11-17T12:51:12.026Z,59.11
2022-11-17T12:52:21.333Z,58.58
2022-11-17T12:53:33.724Z,57.94
2022-11-17T12:54:47.739Z,57.77
2022-11-17T12:56:18.293Z,57.74
2022-11-17T12:57:33.177Z,57.82
2022-11-17T12:59:02.413Z,57.46
2022-11-17T13:00:13.116Z,58.31
2022-11-17T13:01:31.103Z,58.27
2022-11-17T13:02:59.063Z,58.26
2022-11-17T13:04:11.019Z,58.17
2022-11-17T13:05:19.332Z,57.95
2022-11-17T13:06:34.796Z,58.64
2022-11-17T13:07:37.241Z,58.15
2022-11-17T13:08:38.871Z,58.63
2022-11-17T13:09:40.266Z,58.86
2022-11-17T13:10:41.771Z,59.33
2022-11-17T13:11:58.395Z,59.26
2022-11-17T13:13:36.805Z,59.95
2022-11-17T13:15:20.762Z,60.22
2022-11-17T13:16:22.160Z,59.21
2022-11-17T13:17:29.478Z,59.17
2022-11-17T13:18:36.612Z,59.09
2022-11-17T13:19:39.080Z,59.79
2022-11-17T13:20:40.786Z,59.89
2022-11-17T13:21:45.362Z,59.63
2022-11-17T13:23:04.372Z,59.90
2022-11-17T13:24:32.397Z,60.11
2022-11-17T13:25:35.006Z,60.54
2022-11-17T13:26:38.527Z,60.02
2022-11-17T13:27:49.427Z,59.59
2022-11-17T13:29:22.523Z,59.62
2022-11-17T13:30:27.665Z,59.49
2022-11-17T13:31:29.322Z,59.60
2022-11-17T13:32:30.737Z,59.39
2022-11-17T13:33:38.461Z,58.54
2022-11-17T13:34:56.335Z,59.03
2022-11-17T13:36:19.820Z,59.87
2022-11-17T13:37:26.557Z,59.53
2022-11-17T13:38:28.082Z,59.06
2022-11-17T13:39:29.517Z,59.17
2022-11-17T13:40:33.713Z,59.81
2022-11-17T13:41:39.513Z,60.53
2022-11-17T13:42:41.646Z,60.60
2022-11-17T13:43:45.662Z,60.71
2022-11-17T13:44:48.199Z,60.46
2022-11-17T13:45:51.127Z,60.21
2022-11-17T13:46:52.540Z,60.69
2022-11-17T13:47:54.885Z,60.84
2022-11-17T13:48:57.628Z,60.66
2022-11-17T13:50:23.434Z,60.18
2022-11-17T13:51:39.040Z,59.61
2022-11-17T13:52:46.713Z,60.86
2022-11-17T13:53:51.456Z,61.14
2022-11-17T13:54:52.955Z,62.70
2022-11-17T13:55:54.532Z,63.00
2022-11-17T13:57:08.034Z,64.00
2022-11-17T13:58:40.876Z,64.42
2022-11-17T13:59:44.671Z,64.53
2022-11-17T14:00:54.195Z,64.08
2022-11-17T14:02:20.692Z,64.66
2022-11-17T14:03:31.691Z,64.11
2022-11-17T14:04:33.089Z,63.70
2022-11-17T14:05:34.529Z,63.65
2022-11-17T14:06:52.721Z,63.10
2022-11-17T14:07:56.909Z,62.99
2022-11-17T14:09:04.981Z,63.50
2022-11-17T14:10:31.684Z,64.98
2022-11-17T14:11:33.235Z,64.96
2022-11-17T14:12:34.587Z,65.49
2022-11-17T14:13:42.278Z,65.18
2022-11-17T14:14:48.476Z,65.24
2022-11-17T14:15:53.843Z,65.69
2022-11-17T14:16:55.524Z,65.82
2022-11-17T14:18:01.993Z,66.58
2022-11-17T14:19:05.452Z,67.40
2022-11-17T14:20:31.073Z,68.50
2022-11-17T14:21:32.976Z,68.68
2022-11-17T14:22:34.370Z,69.17
2022-11-17T14:23:36.052Z,69.24
2022-11-17T14:24:37.966Z,69.88
2022-11-17T14:25:41.833Z,69.96
2022-11-17T14:26:44.714Z,70.33
2022-11-17T14:27:51.956Z,70.69
2022-11-17T14:28:55.244Z,71.33
2022-11-17T14:29:57.259Z,71.02
2022-11-17T14:30:58.757Z,71.29
2022-11-17T14:32:00.163Z,71.48
2022-11-17T14:33:07.696Z,71.45
2022-11-17T14:34:12.287Z,71.74
2022-11-17T14:35:15.262Z,71.89
2022-11-17T14:36:20.900Z,72.22
2022-11-17T14:37:22.261Z,71.98
2022-11-17T14:38:23.801Z,71.92
2022-11-17T14:39:25.201Z,72.18
2022-11-17T14:40:26.557Z,73.00
2022-11-17T14:41:28.060Z,72.79
2022-11-17T14:42:34.713Z,72.72
2022-11-17T14:43:37.863Z,73.17
2022-11-17T14:44:39.294Z,72.78
2022-11-17T14:45:40.696Z,72.66
2022-11-17T14:46:46.274Z,73.00
2022-11-17T14:47:48.631Z,72.96
2022-11-17T14:48:50.962Z,73.75
2022-11-17T14:49:52.366Z,73.81
2022-11-17T14:50:59.168Z,73.93
2022-11-17T14:52:00.678Z,74.40
2022-11-17T14:53:02.079Z,73.92
2022-11-17T14:54:03.957Z,74.10
2022-11-17T14:55:06.112Z,73.52
2022-11-17T14:56:08.986Z,74.05
2022-11-17T14:57:10.419Z,74.03
2022-11-17T14:58:12.006Z,74.01
2022-11-17T14:59:13.604Z,74.22
2022-11-17T15:00:20.544Z,74.22
2022-11-17T15:01:29.262Z,74.47
2022-11-17T15:02:30.795Z,74.22
2022-11-17T15:03:32.263Z,73.79
2022-11-17T15:04:49.965Z,74.29
2022-11-17T15:05:52.693Z,74.34
2022-11-17T15:06:54.091Z,74.48
2022-11-17T15:07:56.163Z,74.00
2022-11-17T15:09:00.277Z,73.87
2022-11-17T15:10:01.664Z,73.80
2022-11-17T15:11:04.694Z,73.99
2022-11-17T15:12:06.498Z,74.33
2022-11-17T15:13:07.880Z,74.34
2022-11-17T15:14:10.797Z,74.75
2022-11-17T15:15:12.395Z,74.47
2022-11-17T15:16:13.879Z,74.99
2022-11-17T15:17:15.994Z,74.94
2022-11-17T15:18:17.340Z,74.82
2022-11-17T15:19:18.872Z,75.37
2022-11-17T15:20:23.810Z,75.11
2022-11-17T15:21:25.583Z,75.19
2022-11-17T15:22:26.968Z,75.08
2022-11-17T15:23:28.382Z,74.98
2022-11-17T15:24:29.819Z,75.23
2022-11-17T15:25:31.239Z,75.34
2022-11-17T15:26:34.103Z,75.79
2022-11-17T15:27:35.493Z,75.72
2022-11-17T15:28:36.981Z,75.89
2022-11-17T15:29:38.388Z,75.92
2022-11-17T15:30:39.797Z,75.69
2022-11-17T15:31:41.674Z,76.18
2022-11-17T15:32:43.065Z,76.04
2022-11-17T15:33:46.235Z,76.60
2022-11-17T15:34:47.708Z,76.75
2022-11-17T15:35:59.167Z,76.84
2022-11-17T15:37:00.507Z,76.88
2022-11-17T15:38:01.882Z,77.20
2022-11-17T15:39:04.081Z,77.09
2022-11-17T15:40:06.157Z,77.38
2022-11-17T15:41:12.666Z,77.44
2022-11-17T15:42:14.136Z,77.41
2022-11-17T15:43:15.546Z,77.64
2022-11-17T15:44:18.657Z,77.51
2022-11-17T15:45:20.423Z,77.59
2022-11-17T15:46:22.466Z,77.92
2022-11-17T15:47:23.881Z,77.71
2022-11-17T15:48:25.354Z,78.05
2022-11-17T15:49:26.733Z,77.72
2022-11-17T15:50:28.237Z,78.05
2022-11-17T15:51:33.563Z,78.01
2022-11-17T15:53:02.280Z,78.26
2022-11-17T15:53:58.604Z,78.03
2022-11-17T15:55:00.020Z,78.16
2022-11-17T15:56:20.105Z,78.48
2022-11-17T15:57:21.636Z,78.26
2022-11-17T15:58:23.024Z,78.51
2022-11-17T15:59:24.617Z,78.41
2022-11-17T16:00:26.146Z,78.83
2022-11-17T16:01:38.841Z,78.66
2022-11-17T16:02:43.302Z,79.17
2022-11-17T16:03:45.632Z,79.22
2022-11-17T16:04:47.043Z,79.02
2022-11-17T16:05:48.519Z,79.30
2022-11-17T16:06:50.049Z,79.51
2022-11-17T16:07:51.454Z,79.15
2022-11-17T16:08:53.461Z,79.17
2022-11-17T16:09:54.864Z,78.96
2022-11-17T16:10:56.241Z,79.42
2022-11-17T16:11:57.839Z,79.24
2022-11-17T16:12:59.270Z,79.40
2022-11-17T16:14:01.090Z,79.38
2022-11-17T16:15:02.691Z,79.68
2022-11-17T16:16:04.604Z,79.53
2022-11-17T16:17:15.650Z,79.38
2022-11-17T16:18:17.334Z,79.56
2022-11-17T16:19:19.088Z,79.72
2022-11-17T16:20:20.765Z,79.78
2022-11-17T16:21:22.338Z,79.78
2022-11-17T16:22:23.692Z,79.64
2022-11-17T16:23:25.130Z,79.92
2022-11-17T16:24:26.556Z,80.81
2022-11-17T16:25:27.968Z,80.78
2022-11-17T16:26:30.077Z,81.20
2022-11-17T16:27:32.715Z,80.95
2022-11-17T16:28:34.273Z,81.50
2022-11-17T16:29:35.766Z,81.47
2022-11-17T16:30:37.346Z,81.70
2022-11-17T16:31:39.181Z,81.69
2022-11-17T16:32:40.803Z,81.74
2022-11-17T16:33:59.923Z,82.59
2022-11-17T16:35:01.450Z,83.10
2022-11-17T16:36:06.610Z,83.39
2022-11-17T16:37:07.955Z,82.99
2022-11-17T16:38:14.521Z,83.08
2022-11-17T16:39:17.308Z,83.15
2022-11-17T16:40:19.458Z,83.18
2022-11-17T16:41:26.280Z,82.90
2022-11-17T16:42:27.727Z,83.00
2022-11-17T16:43:29.153Z,82.73
2022-11-17T16:44:30.588Z,82.66
2022-11-17T16:45:41.523Z,83.19
2022-11-17T16:46:45.255Z,83.03
2022-11-17T16:47:46.616Z,82.96
2022-11-17T16:48:49.519Z,82.89
2022-11-17T16:49:51.860Z,82.36
2022-11-17T16:50:53.350Z,83.30
2022-11-17T16:51:54.803Z,82.87
2022-11-17T16:52:56.129Z,82.86
2022-11-17T16:54:00.426Z,83.13
2022-11-17T16:55:04.916Z,83.25
2022-11-17T16:56:09.068Z,83.04
2022-11-17T16:57:10.544Z,83.48
2022-11-17T16:58:11.939Z,83.12
2022-11-17T16:59:17.144Z,82.88
2022-11-17T17:00:19.340Z,83.03
2022-11-17T17:01:24.134Z,82.59
2022-11-17T17:02:26.065Z,82.34
2022-11-17T17:03:27.481Z,82.10
2022-11-17T17:04:32.639Z,82.69
2022-11-17T17:05:40.366Z,82.42
2022-11-17T17:06:43.876Z,83.20
2022-11-17T17:07:45.287Z,83.54
2022-11-17T17:08:46.774Z,83.22
2022-11-17T17:09:48.129Z,82.84
2022-11-17T17:10:52.647Z,82.20
2022-11-17T17:11:54.218Z,82.05
2022-11-17T17:12:55.617Z,81.75
2022-11-17T17:13:57.444Z,81.25
2022-11-17T17:14:58.814Z,80.46
2022-11-17T17:16:12.561Z,79.52
2022-11-17T17:17:13.982Z,78.46
2022-11-17T17:18:15.386Z,77.94
2022-11-17T17:19:17.020Z,77.46
2022-11-17T17:20:18.564Z,77.49
2022-11-17T17:21:20.285Z,77.17
2022-11-17T17:22:21.908Z,77.63
2022-11-17T17:23:24.636Z,77.09
2022-11-17T17:24:26.063Z,77.21
2022-11-17T17:25:27.450Z,77.62
2022-11-17T17:26:31.438Z,77.28
2022-11-17T17:27:32.903Z,77.02
2022-11-17T17:28:37.151Z,76.97
2022-11-17T17:29:38.518Z,76.77
2022-11-17T17:30:39.924Z,76.42
2022-11-17T17:31:42.436Z,76.61
2022-11-17T17:32:43.843Z,76.48
2022-11-17T17:33:45.542Z,76.79
2022-11-17T17:34:46.947Z,76.79
2022-11-17T17:35:48.612Z,77.09
2022-11-17T17:36:50.232Z,76.86
2022-11-17T17:37:51.677Z,77.37
2022-11-17T17:38:56.377Z,77.48
2022-11-17T17:39:57.877Z,77.54
2022-11-17T17:41:10.309Z,77.55
2022-11-17T17:42:17.837Z,77.21
2022-11-17T17:43:19.227Z,77.00
2022-11-17T17:44:20.649Z,77.09
2022-11-17T17:45:22.042Z,76.55
2022-11-17T17:46:23.701Z,76.78
2022-11-17T17:47:25.131Z,76.96
2022-11-17T17:48:26.519Z,76.93
2022-11-17T17:49:27.956Z,76.90
